Time;durP1;ratioP1;P1;durP2;ratioP2;P2;SDS_P1;SDS_P2;PMS_P1;PMS_P2;Temp;Humidity;BMP_temperature;BMP_pressure;BME280_temperature;BME280_humidity;BME280_pressure;Samples;Min_cycle;Max_cycle;Signal;HPM_P1;HPM_P2
2023/12/07 00:02:13;;;;;;;9.27;8.27;;;5.70;99.90;;;;;;5116594;28;20579;-69
2023/12/07 00:04:38;;;;;;;8.80;7.90;;;5.70;99.90;;;;;;5116519;28;20251;-69
2023/12/07 00:07:04;;;;;;;8.70;7.80;;;5.70;99.90;;;;;;5120016;27;20987;-69
2023/12/07 00:09:29;;;;;;;8.80;7.87;;;5.60;99.90;;;;;;5136901;27;20208;-69
2023/12/07 00:11:55;;;;;;;8.90;8.00;;;5.70;99.90;;;;;;5136555;27;20241;-69
2023/12/07 00:14:21;;;;;;;8.20;7.40;;;5.70;99.90;;;;;;5117515;27;20197;-69
2023/12/07 00:16:46;;;;;;;8.97;8.03;;;5.70;99.90;;;;;;5117567;27;20422;-69
2023/12/07 00:19:12;;;;;;;8.20;7.40;;;5.70;99.90;;;;;;5137096;27;20163;-69
2023/12/07 00:21:38;;;;;;;9.70;7.80;;;5.70;99.90;;;;;;5136749;27;20156;-70
2023/12/07 00:24:04;;;;;;;9.10;7.50;;;5.60;99.90;;;;;;5136538;27;20167;-69
2023/12/07 00:26:29;;;;;;;9.67;7.40;;;5.40;99.90;;;;;;5136432;27;20184;-69
2023/12/07 00:28:55;;;;;;;7.77;6.50;;;5.40;99.90;;;;;;5119144;27;20399;-69
2023/12/07 00:31:20;;;;;;;7.10;6.40;;;5.50;99.90;;;;;;5116027;28;20162;-69
2023/12/07 00:33:46;;;;;;;7.23;6.53;;;5.50;99.90;;;;;;5115614;28;20188;-69
2023/12/07 00:36:12;;;;;;;7.03;6.43;;;5.60;99.90;;;;;;5115776;28;20189;-69
2023/12/07 00:38:37;;;;;;;8.47;7.10;;;5.70;99.90;;;;;;5132869;27;20623;-69
2023/12/07 00:41:03;;;;;;;10.30;7.33;;;5.80;99.90;;;;;;5136693;27;20405;-69
2023/12/07 00:43:28;;;;;;;8.60;7.00;;;5.90;99.90;;;;;;5136089;27;20709;-69
2023/12/07 00:45:54;;;;;;;7.70;6.70;;;6.00;99.90;;;;;;5136043;27;20693;-69
2023/12/07 00:48:20;;;;;;;6.93;6.23;;;5.90;99.90;;;;;;5121615;27;20680;-68
2023/12/07 00:50:45;;;;;;;7.37;6.57;;;5.80;99.90;;;;;;5115437;28;20177;-69
2023/12/07 00:53:11;;;;;;;9.33;6.83;;;5.80;99.90;;;;;;5115522;28;20219;-69
2023/12/07 00:55:37;;;;;;;8.03;7.23;;;5.90;99.90;;;;;;5115293;28;20513;-69
2023/12/07 00:58:02;;;;;;;9.77;6.63;;;6.00;99.90;;;;;;5127099;27;20209;-69
2023/12/07 01:00:28;;;;;;;6.60;6.00;;;6.00;99.90;;;;;;5135747;27;20167;-69
2023/12/07 01:02:53;;;;;;;7.37;6.50;;;6.00;99.90;;;;;;5135720;27;20193;-69
2023/12/07 01:05:19;;;;;;;7.27;6.60;;;6.10;99.90;;;;;;5135445;27;20170;-69
2023/12/07 01:07:44;;;;;;;7.90;7.10;;;5.90;99.90;;;;;;5126420;27;20162;-69
2023/12/07 01:10:10;;;;;;;6.97;6.03;;;5.80;99.90;;;;;;5114969;28;20165;-69
2023/12/07 01:12:35;;;;;;;8.47;6.80;;;5.60;99.90;;;;;;5114948;28;20277;-69
2023/12/07 01:15:01;;;;;;;7.47;5.93;;;5.80;99.90;;;;;;5114751;28;20171;-69
2023/12/07 01:17:26;;;;;;;7.87;6.37;;;5.80;99.90;;;;;;5121205;27;20275;-69
2023/12/07 01:19:52;;;;;;;9.47;6.20;;;5.90;99.90;;;;;;5135679;27;20588;-69
2023/12/07 01:22:18;;;;;;;6.63;6.03;;;5.90;99.90;;;;;;5135847;27;20165;-69
2023/12/07 01:24:44;;;;;;;6.23;5.63;;;5.90;99.90;;;;;;5135538;27;20229;-69
2023/12/07 01:27:09;;;;;;;8.20;5.70;;;5.80;99.90;;;;;;5131266;27;20723;-69
2023/12/07 01:29:35;;;;;;;7.20;6.47;;;5.90;99.90;;;;;;5114592;28;20411;-69
2023/12/07 01:32:00;;;;;;;7.30;6.20;;;5.80;99.90;;;;;;5114762;28;20194;-69
2023/12/07 01:34:26;;;;;;;7.00;6.20;;;5.80;99.90;;;;;;5114797;28;20206;-69
2023/12/07 01:36:51;;;;;;;6.13;5.53;;;5.80;99.90;;;;;;5116054;27;20200;-69
2023/12/07 01:39:17;;;;;;;5.90;5.27;;;5.70;99.90;;;;;;5135391;27;20180;-69
2023/12/07 01:41:43;;;;;;;7.43;6.37;;;5.70;99.90;;;;;;5135122;27;20161;-69
2023/12/07 01:44:08;;;;;;;6.43;5.80;;;5.60;99.90;;;;;;5135142;27;20176;-69
2023/12/07 01:46:35;;;;;;;6.00;5.40;;;5.70;99.90;;;;;;5135197;27;20407;-71
2023/12/07 01:49:01;;;;;;;7.10;5.70;;;5.60;99.90;;;;;;5115646;27;20596;-69
2023/12/07 01:51:27;;;;;;;6.23;5.63;;;5.70;99.90;;;;;;5114816;28;20745;-69
2023/12/07 01:53:53;;;;;;;6.47;5.80;;;5.80;99.90;;;;;;5114425;28;20448;-68
2023/12/07 01:56:19;;;;;;;6.97;5.03;;;5.60;99.90;;;;;;5113919;28;20307;-69
2023/12/07 01:58:45;;;;;;;5.50;5.00;;;5.60;99.90;;;;;;5130854;27;20480;-69
2023/12/07 02:01:12;;;;;;;6.20;5.60;;;5.60;99.90;;;;;;5134573;27;20156;-69
2023/12/07 02:03:40;;;;;;;6.67;5.97;;;5.60;99.90;;;;;;5124256;27;20200;-69
2023/12/07 02:06:06;;;;;;;7.13;5.57;;;5.50;99.90;;;;;;5113924;28;20794;-68
2023/12/07 02:08:31;;;;;;;6.67;5.30;;;5.50;99.90;;;;;;5128803;27;20409;-69
2023/12/07 02:10:57;;;;;;;7.93;5.50;;;5.50;99.90;;;;;;5134312;27;20402;-68
2023/12/07 02:13:23;;;;;;;7.87;5.27;;;5.50;99.90;;;;;;5134576;27;20237;-69
2023/12/07 02:15:50;;;;;;;5.60;4.97;;;5.40;99.90;;;;;;5134444;27;20219;-69
2023/12/07 02:18:40;;;;;;;5.80;5.20;;;5.30;99.90;;;;;;5125073;27;20168;-69
2023/12/07 02:21:24;;;;;;;7.70;5.30;;;5.10;99.90;;;;;;5134558;27;20381;-69
2023/12/07 02:23:53;;;;;;;5.03;4.53;;;5.00;99.90;;;;;;5134243;27;20766;-69
2023/12/07 02:26:21;;;;;;;7.57;5.20;;;4.90;99.90;;;;;;5130628;27;20414;-68
2023/12/07 02:28:47;;;;;;;6.80;5.73;;;4.80;99.90;;;;;;5117013;27;20485;-69
2023/12/07 02:31:13;;;;;;;6.93;6.20;;;4.80;99.90;;;;;;5113476;28;20441;-69
2023/12/07 02:33:39;;;;;;;7.73;5.43;;;4.70;99.90;;;;;;5113688;28;20199;-69
2023/12/07 02:36:05;;;;;;;7.70;5.60;;;4.70;99.90;;;;;;5113637;28;20414;-69
2023/12/07 02:38:31;;;;;;;5.97;5.37;;;4.70;99.90;;;;;;5127846;27;20760;-68
2023/12/07 02:40:58;;;;;;;6.93;6.27;;;4.60;99.90;;;;;;5133953;27;20397;-69
2023/12/07 02:43:24;;;;;;;9.63;6.23;;;4.50;99.90;;;;;;5133912;27;20404;-69
2023/12/07 02:45:50;;;;;;;7.87;6.10;;;4.50;99.90;;;;;;5133810;27;20970;-69
2023/12/07 02:48:17;;;;;;;7.00;6.27;;;4.40;99.90;;;;;;5121859;28;20588;-69
2023/12/07 02:50:43;;;;;;;7.00;6.20;;;4.30;99.90;;;;;;5113382;28;20530;-69
2023/12/07 02:53:08;;;;;;;7.30;6.60;;;4.20;99.90;;;;;;5113187;28;20450;-69
2023/12/07 02:55:34;;;;;;;7.97;6.77;;;4.10;99.90;;;;;;5113115;28;20437;-69
2023/12/07 02:58:00;;;;;;;7.73;6.50;;;3.90;99.90;;;;;;5122907;28;20209;-69
2023/12/07 03:00:25;;;;;;;5.97;5.37;;;3.90;99.90;;;;;;5134062;28;20171;-69
2023/12/07 03:02:51;;;;;;;6.73;6.00;;;3.90;99.90;;;;;;5133667;28;20170;-69
2023/12/07 03:05:19;;;;;;;8.73;6.60;;;3.90;99.90;;;;;;5133909;27;20172;-69
2023/12/07 03:07:45;;;;;;;8.20;6.47;;;3.90;99.90;;;;;;5126382;28;20938;-69
2023/12/07 03:10:10;;;;;;;7.93;7.07;;;4.00;99.90;;;;;;5113717;28;20409;-69
2023/12/07 03:12:36;;;;;;;7.47;6.40;;;4.00;99.90;;;;;;5094879;28;20697;-69
2023/12/07 03:15:01;;;;;;;11.70;8.93;;;4.00;99.90;;;;;;5113182;28;20195;-69
2023/12/07 03:17:27;;;;;;;8.27;7.47;;;4.10;99.90;;;;;;5117632;28;20180;-69
2023/12/07 03:19:52;;;;;;;7.93;6.83;;;4.10;99.90;;;;;;5133608;28;20534;-70
2023/12/07 03:22:18;;;;;;;7.37;6.40;;;4.10;99.90;;;;;;5134113;28;20187;-70
2023/12/07 03:24:47;;;;;;;7.07;6.37;;;4.20;99.90;;;;;;5133613;28;20650;-71
2023/12/07 03:27:13;;;;;;;8.87;7.07;;;4.30;99.90;;;;;;5130891;27;20187;-70
2023/12/07 03:29:38;;;;;;;9.20;6.20;;;4.30;99.90;;;;;;5113070;28;20440;-70
2023/12/07 03:32:04;;;;;;;7.37;5.67;;;4.40;99.90;;;;;;5112941;28;20670;-70
2023/12/07 03:34:29;;;;;;;7.27;6.47;;;4.30;99.90;;;;;;5113481;28;20192;-70
2023/12/07 03:36:55;;;;;;;7.63;5.53;;;4.30;99.90;;;;;;5113029;28;20784;-69
2023/12/07 03:39:25;;;;;;;7.97;6.57;;;4.30;99.90;;;;;;5137084;27;20638;-70
2023/12/07 03:41:51;;;;;;;7.40;6.47;;;4.20;99.90;;;;;;5137507;27;20188;-70
2023/12/07 03:44:16;;;;;;;7.00;6.30;;;4.20;99.90;;;;;;5137575;27;20479;-70
2023/12/07 03:46:42;;;;;;;7.30;6.60;;;4.20;99.90;;;;;;5118923;27;20192;-70
2023/12/07 03:49:07;;;;;;;8.50;7.20;;;4.20;99.90;;;;;;5118841;27;20168;-70
2023/12/07 03:51:35;;;;;;;7.33;6.53;;;4.20;99.90;;;;;;5116826;28;20161;-70
2023/12/07 03:54:00;;;;;;;13.23;7.97;;;4.30;99.90;;;;;;5116550;28;20199;-69
2023/12/07 03:56:30;;;;;;;7.77;6.80;;;4.30;99.90;;;;;;5116333;28;20453;-70
2023/12/07 03:58:56;;;;;;;7.30;6.60;;;4.30;99.90;;;;;;5119527;27;20176;-70
2023/12/07 04:01:26;;;;;;;8.40;6.90;;;4.30;99.90;;;;;;5116705;28;20485;-69
2023/12/07 04:03:53;;;;;;;7.37;6.67;;;4.30;99.90;;;;;;5116438;28;20409;-70
2023/12/07 04:06:18;;;;;;;7.87;6.83;;;4.30;99.90;;;;;;5116889;28;20422;-70
2023/12/07 04:08:44;;;;;;;12.90;8.00;;;4.20;99.90;;;;;;5130968;27;20403;-70
2023/12/07 04:11:10;;;;;;;7.33;6.60;;;4.20;99.90;;;;;;5136805;27;20164;-70
2023/12/07 04:13:36;;;;;;;10.33;7.37;;;4.10;99.90;;;;;;5145335;27;20472;-70
2023/12/07 04:16:03;;;;;;;7.93;7.13;;;4.00;99.90;;;;;;5143890;27;20176;-69
2023/12/07 04:18:29;;;;;;;8.20;7.13;;;3.90;99.90;;;;;;5143331;27;20503;-70
2023/12/07 04:20:55;;;;;;;9.83;7.90;;;3.90;99.90;;;;;;5116656;28;20409;-70
2023/12/07 04:23:20;;;;;;;8.37;7.37;;;3.80;99.90;;;;;;5117905;27;20410;-70
2023/12/07 04:25:46;;;;;;;9.53;7.30;;;3.60;99.90;;;;;;5136400;27;20191;-71
2023/12/07 04:28:11;;;;;;;9.90;8.53;;;3.50;99.90;;;;;;5126795;27;20204;-71
2023/12/07 04:30:37;;;;;;;10.80;9.13;;;3.50;99.90;;;;;;5115888;28;20168;-70
2023/12/07 04:33:03;;;;;;;8.50;7.47;;;3.50;99.90;;;;;;5116272;28;20680;-70
2023/12/07 04:35:28;;;;;;;10.77;8.07;;;3.50;99.90;;;;;;5115601;28;20168;-71
2023/12/07 04:37:54;;;;;;;11.23;7.63;;;3.40;99.90;;;;;;5125498;27;20646;-71
2023/12/07 04:40:20;;;;;;;7.53;6.77;;;3.40;99.90;;;;;;5136246;27;20263;-71
2023/12/07 04:42:46;;;;;;;9.37;8.03;;;3.30;99.90;;;;;;5136159;27;20923;-70
2023/12/07 04:45:12;;;;;;;10.17;8.80;;;3.20;99.90;;;;;;5136241;27;20164;-71
2023/12/07 04:47:37;;;;;;;10.70;9.47;;;3.10;99.90;;;;;;5131360;27;20253;-71
2023/12/07 04:50:03;;;;;;;12.33;9.93;;;3.10;99.90;;;;;;5114435;28;20430;-70
2023/12/07 04:52:29;;;;;;;10.07;8.60;;;3.00;99.90;;;;;;5115664;28;20283;-71
2023/12/07 04:54:54;;;;;;;16.00;12.67;;;3.00;99.90;;;;;;5115596;28;20768;-70
2023/12/07 04:57:20;;;;;;;10.97;9.80;;;2.90;99.90;;;;;;5117186;27;20604;-71
2023/12/07 04:59:46;;;;;;;15.10;11.97;;;3.00;99.90;;;;;;5135819;27;20165;-69
2023/12/07 05:02:14;;;;;;;10.97;9.10;;;3.00;99.90;;;;;;5136322;27;20247;-68
2023/12/07 05:04:40;;;;;;;10.83;9.30;;;3.00;99.90;;;;;;5135768;27;20485;-71
2023/12/07 05:07:05;;;;;;;12.00;9.57;;;3.00;99.90;;;;;;5135539;27;20563;-70
2023/12/07 05:09:31;;;;;;;10.17;8.37;;;2.90;99.90;;;;;;5096636;28;20173;-70
2023/12/07 05:11:58;;;;;;;9.70;8.50;;;2.90;99.90;;;;;;5114938;28;20173;-71
2023/12/07 05:14:23;;;;;;;9.80;8.90;;;3.00;99.90;;;;;;5096610;28;20199;-71
2023/12/07 05:16:52;;;;;;;9.70;8.67;;;3.00;99.90;;;;;;5114933;28;20422;-70
2023/12/07 05:19:20;;;;;;;9.50;8.50;;;3.00;99.90;;;;;;5133368;27;20259;-71
2023/12/07 05:21:46;;;;;;;11.00;8.40;;;3.00;99.90;;;;;;5135265;27;20926;-70
2023/12/07 05:24:12;;;;;;;10.17;9.10;;;3.00;99.90;;;;;;5135326;27;20402;-71
2023/12/07 05:26:38;;;;;;;16.60;10.67;;;3.00;99.90;;;;;;5135535;27;20432;-71
2023/12/07 05:29:04;;;;;;;10.87;9.30;;;2.90;99.90;;;;;;5118694;27;20875;-70
2023/12/07 05:31:29;;;;;;;11.50;9.30;;;2.80;99.90;;;;;;5107559;27;20177;-71
2023/12/07 05:33:55;;;;;;;10.70;9.60;;;2.70;99.90;;;;;;5104779;28;20204;-70
2023/12/07 05:36:21;;;;;;;12.17;9.10;;;2.60;99.90;;;;;;5106489;28;20193;-71
2023/12/07 05:38:46;;;;;;;10.13;8.67;;;2.70;99.90;;;;;;5109890;27;20488;-71
2023/12/07 05:41:12;;;;;;;11.77;10.23;;;2.70;99.90;;;;;;5135194;27;20209;-71
2023/12/07 05:43:41;;;;;;;10.27;7.93;;;2.70;99.90;;;;;;5116998;27;20785;-71
2023/12/07 05:46:07;;;;;;;9.97;8.90;;;2.70;99.90;;;;;;5104820;28;21028;-72
2023/12/07 05:48:33;;;;;;;13.87;10.43;;;2.80;99.90;;;;;;5104407;27;20492;-70
2023/12/07 05:50:58;;;;;;;12.53;9.70;;;2.80;99.90;;;;;;5109890;28;20180;-70
2023/12/07 05:53:24;;;;;;;10.03;8.83;;;2.70;99.90;;;;;;5114087;28;20718;-70
2023/12/07 05:55:50;;;;;;;10.97;9.27;;;2.60;99.90;;;;;;5114157;28;20212;-68
2023/12/07 05:58:17;;;;;;;11.97;9.83;;;2.50;99.90;;;;;;5113674;28;20167;-69
2023/12/07 06:00:43;;;;;;;12.10;10.20;;;2.40;99.90;;;;;;5114544;28;20407;-71
2023/12/07 06:03:09;;;;;;;12.93;9.03;;;2.40;99.90;;;;;;5115038;28;20401;-69
2023/12/07 06:05:37;;;;;;;12.30;10.53;;;2.50;99.90;;;;;;5113989;28;20495;-69
2023/12/07 06:08:04;;;;;;;10.27;8.97;;;2.40;99.90;;;;;;5114071;28;20532;-69
2023/12/07 06:10:30;;;;;;;11.47;9.67;;;2.50;99.90;;;;;;5113780;28;20406;-69
2023/12/07 06:12:56;;;;;;;11.47;9.23;;;2.50;99.90;;;;;;5113913;28;20469;-69
2023/12/07 06:15:22;;;;;;;11.37;8.60;;;2.50;99.90;;;;;;5114226;28;20167;-69
2023/12/07 06:17:48;;;;;;;11.80;9.67;;;2.40;99.90;;;;;;5113375;28;20395;-68
2023/12/07 06:20:13;;;;;;;10.07;8.90;;;2.40;99.90;;;;;;5113668;28;20408;-69
2023/12/07 06:22:39;;;;;;;11.87;8.17;;;2.40;99.90;;;;;;5113860;28;20213;-69
2023/12/07 06:25:05;;;;;;;8.30;7.50;;;2.50;99.90;;;;;;5113552;28;20622;-69
2023/12/07 06:27:31;;;;;;;10.10;7.60;;;2.50;99.90;;;;;;5113314;28;20282;-70
2023/12/07 06:29:56;;;;;;;9.70;7.67;;;2.50;99.90;;;;;;5095265;28;20932;-69
2023/12/07 06:32:22;;;;;;;8.93;7.70;;;2.60;99.90;;;;;;5113432;28;20246;-68
2023/12/07 06:34:47;;;;;;;9.47;8.50;;;2.50;99.90;;;;;;5113857;28;20164;-69
2023/12/07 06:37:13;;;;;;;12.63;9.77;;;2.50;99.90;;;;;;5113388;28;20192;-69
2023/12/07 06:39:39;;;;;;;9.70;8.00;;;2.40;99.90;;;;;;5113430;28;20179;-69
2023/12/07 06:42:04;;;;;;;10.87;7.70;;;2.30;99.90;;;;;;5112847;28;20160;-68
2023/12/07 06:44:30;;;;;;;12.40;8.50;;;2.30;99.90;;;;;;5113674;28;20160;-68
2023/12/07 06:46:55;;;;;;;11.70;9.40;;;2.20;99.90;;;;;;5113424;28;20555;-69
2023/12/07 06:49:21;;;;;;;13.00;9.97;;;2.20;99.90;;;;;;5113411;28;20196;-69
2023/12/07 06:51:46;;;;;;;15.90;8.90;;;2.20;99.90;;;;;;5113114;28;20169;-69
2023/12/07 06:54:13;;;;;;;12.43;9.77;;;2.20;99.90;;;;;;5113301;28;20165;-70
2023/12/07 06:56:39;;;;;;;10.83;8.67;;;2.30;99.90;;;;;;5112928;28;20619;-70
2023/12/07 06:59:04;;;;;;;8.03;7.23;;;2.30;99.90;;;;;;5128220;28;20394;-69
2023/12/07 07:01:30;;;;;;;12.80;10.70;;;2.30;99.90;;;;;;5133792;28;20168;-69
2023/12/07 07:03:56;;;;;;;11.10;9.30;;;2.30;99.90;;;;;;5133875;28;20164;-69
2023/12/07 07:06:22;;;;;;;10.40;9.00;;;2.40;99.90;;;;;;5133476;27;20753;-69
2023/12/07 07:08:49;;;;;;;10.40;8.77;;;2.40;99.90;;;;;;5121288;28;20481;-70
2023/12/07 07:11:14;;;;;;;11.60;9.97;;;2.30;99.90;;;;;;5113423;28;20161;-69
2023/12/07 07:13:41;;;;;;;10.80;8.53;;;2.30;99.90;;;;;;5115754;28;21021;-69
2023/12/07 07:16:08;;;;;;;12.57;10.33;;;2.30;99.90;;;;;;5117155;28;20410;-69
2023/12/07 07:18:34;;;;;;;10.10;9.07;;;2.30;99.90;;;;;;5127565;27;20860;-69
2023/12/07 07:21:00;;;;;;;13.20;9.00;;;2.30;99.90;;;;;;5137673;27;20405;-67
2023/12/07 07:23:26;;;;;;;16.43;10.40;;;2.20;99.90;;;;;;5137888;27;20409;-69
2023/12/07 07:25:51;;;;;;;11.47;9.73;;;2.20;99.90;;;;;;5137757;27;20194;-69
2023/12/07 07:28:17;;;;;;;13.20;11.20;;;2.20;99.90;;;;;;5129550;27;20171;-69
2023/12/07 07:30:43;;;;;;;12.43;10.40;;;2.20;99.90;;;;;;5116880;28;20172;-69
2023/12/07 07:33:08;;;;;;;13.47;10.13;;;2.20;99.90;;;;;;5116914;28;20499;-69
2023/12/07 07:35:34;;;;;;;15.10;10.67;;;2.20;99.90;;;;;;5116769;28;20226;-68
2023/12/07 07:38:00;;;;;;;13.73;11.40;;;2.10;99.90;;;;;;5122339;27;20160;-69
2023/12/07 07:40:25;;;;;;;13.53;11.70;;;2.10;99.90;;;;;;5137267;27;20202;-71
2023/12/07 07:42:51;;;;;;;15.57;11.60;;;2.10;99.90;;;;;;5137023;27;20176;-71
2023/12/07 07:45:16;;;;;;;12.13;10.83;;;2.10;99.90;;;;;;5137056;27;20243;-71
2023/12/07 07:47:42;;;;;;;16.40;12.60;;;2.00;99.90;;;;;;5116051;27;20174;-71
2023/12/07 07:50:08;;;;;;;13.23;11.30;;;2.10;99.90;;;;;;5116591;28;20330;-70
2023/12/07 07:52:35;;;;;;;14.10;11.83;;;2.20;99.90;;;;;;5116277;28;20192;-69
2023/12/07 07:55:02;;;;;;;15.80;13.33;;;2.20;99.90;;;;;;5116577;28;20402;-69
2023/12/07 07:57:28;;;;;;;17.17;12.80;;;2.30;99.90;;;;;;5116648;27;20441;-70
2023/12/07 07:59:54;;;;;;;15.33;12.83;;;2.30;99.90;;;;;;5136996;27;20406;-69
2023/12/07 08:02:21;;;;;;;15.30;12.30;;;2.30;99.90;;;;;;5119595;27;20822;-68
2023/12/07 08:04:47;;;;;;;19.50;12.10;;;2.30;99.90;;;;;;5116012;28;20179;-69
2023/12/07 08:07:12;;;;;;;15.70;12.83;;;2.20;99.90;;;;;;5097661;28;20430;-70
2023/12/07 08:09:38;;;;;;;21.23;12.87;;;2.30;99.90;;;;;;5134613;27;20168;-69
2023/12/07 08:12:04;;;;;;;19.20;13.53;;;2.30;99.90;;;;;;5136409;27;20207;-72
2023/12/07 08:14:30;;;;;;;16.90;13.27;;;2.30;99.90;;;;;;5136002;27;20267;-72
2023/12/07 08:16:55;;;;;;;15.57;12.47;;;2.20;99.90;;;;;;5135418;27;20971;-72
2023/12/07 08:19:21;;;;;;;15.70;11.00;;;2.10;99.90;;;;;;5120228;27;20200;-71
2023/12/07 08:21:47;;;;;;;13.67;10.87;;;2.10;99.90;;;;;;5115928;28;20161;-71
2023/12/07 08:24:12;;;;;;;13.53;11.13;;;2.30;99.90;;;;;;5114885;27;20194;-73
2023/12/07 08:26:38;;;;;;;12.53;11.20;;;2.40;99.90;;;;;;5135365;27;20214;-74
2023/12/07 08:29:05;;;;;;;14.93;11.00;;;2.40;99.90;;;;;;5123021;27;20199;-74
2023/12/07 08:31:30;;;;;;;13.93;11.23;;;2.30;99.90;;;;;;5116011;28;20402;-74
2023/12/07 08:33:56;;;;;;;12.50;11.07;;;2.50;99.90;;;;;;5115874;28;20445;-73
2023/12/07 08:36:21;;;;;;;12.67;11.37;;;2.60;99.90;;;;;;5116644;28;20234;-73
2023/12/07 08:38:47;;;;;;;13.10;11.50;;;2.70;99.90;;;;;;5126793;27;20284;-71
2023/12/07 08:41:12;;;;;;;14.17;12.50;;;2.80;99.90;;;;;;5135989;27;20171;-69
2023/12/07 08:43:38;;;;;;;16.97;10.73;;;2.60;99.90;;;;;;5136034;27;20176;-68
2023/12/07 08:46:07;;;;;;;12.30;10.70;;;2.60;99.90;;;;;;5135842;27;20188;-72
2023/12/07 08:48:33;;;;;;;10.67;8.90;;;2.70;99.90;;;;;;5123910;27;20176;-71
2023/12/07 08:50:59;;;;;;;12.30;9.87;;;2.80;99.90;;;;;;5115443;28;20424;-72
2023/12/07 08:53:25;;;;;;;12.30;10.53;;;2.70;99.90;;;;;;5097743;28;21042;-74
2023/12/07 08:55:52;;;;;;;13.10;10.30;;;2.80;99.90;;;;;;5115448;28;20708;-73
2023/12/07 08:58:18;;;;;;;11.87;10.20;;;2.90;99.90;;;;;;5103588;27;20907;-70
2023/12/07 09:00:44;;;;;;;11.27;10.07;;;2.80;99.90;;;;;;5135887;27;20473;-69
2023/12/07 09:03:09;;;;;;;10.30;9.13;;;2.80;99.90;;;;;;5135988;27;20269;-71
2023/12/07 09:05:35;;;;;;;10.77;8.50;;;2.70;99.90;;;;;;5135782;27;20421;-73
2023/12/07 09:08:01;;;;;;;10.70;9.50;;;2.70;99.90;;;;;;5132685;27;20247;-73
2023/12/07 09:10:26;;;;;;;15.50;12.77;;;2.70;99.90;;;;;;5118185;28;20172;-73
2023/12/07 09:12:52;;;;;;;13.77;10.90;;;2.80;99.90;;;;;;5115501;28;20646;-73
2023/12/07 09:15:17;;;;;;;15.17;12.07;;;2.90;99.90;;;;;;5115367;28;20168;-71
2023/12/07 09:17:43;;;;;;;16.30;11.90;;;3.10;99.90;;;;;;5116225;27;20164;-72
2023/12/07 09:20:14;;;;;;;17.00;12.90;;;3.10;99.90;;;;;;5135381;27;20246;-71
2023/12/07 09:22:44;;;;;;;13.70;12.13;;;3.30;99.90;;;;;;5135207;27;20145;-70
2023/12/07 09:25:11;;;;;;;13.50;12.10;;;3.50;99.90;;;;;;5135456;27;20426;-74
2023/12/07 09:27:38;;;;;;;13.20;11.80;;;3.70;99.90;;;;;;5135119;27;20533;-71
2023/12/07 09:30:06;;;;;;;13.10;11.23;;;3.70;99.90;;;;;;5114892;28;20479;-73
2023/12/07 09:32:31;;;;;;;13.97;12.03;;;3.80;99.90;;;;;;5114437;28;20512;-71
2023/12/07 09:34:57;;;;;;;17.10;13.27;;;3.90;99.90;;;;;;5114637;28;20399;-73
2023/12/07 09:37:22;;;;;;;14.07;12.67;;;4.00;99.90;;;;;;5114361;28;20226;-72
2023/12/07 09:39:48;;;;;;;14.07;11.97;;;4.20;99.90;;;;;;5115192;27;20171;-74
2023/12/07 09:42:14;;;;;;;13.43;12.07;;;4.20;99.90;;;;;;5116668;27;20171;-69
2023/12/07 09:44:39;;;;;;;12.03;10.47;;;4.30;99.90;;;;;;5134961;27;20647;-72
2023/12/07 09:47:05;;;;;;;12.50;10.50;;;4.30;99.90;;;;;;5134701;27;20195;-73
2023/12/07 09:49:31;;;;;;;13.57;12.17;;;4.40;99.90;;;;;;5100217;28;20173;-73
2023/12/07 09:51:59;;;;;;;13.50;11.43;;;4.50;99.90;;;;;;5114206;28;20406;-73
2023/12/07 09:54:26;;;;;;;15.83;11.40;;;4.60;99.90;;;;;;5114427;28;20160;-72
2023/12/07 09:56:54;;;;;;;14.17;12.17;;;4.60;99.90;;;;;;5113998;28;20454;-71
2023/12/07 09:59:20;;;;;;;16.80;12.07;;;4.60;99.90;;;;;;5127174;22;20479;-73
2023/12/07 10:01:45;;;;;;;13.40;11.93;;;4.70;99.90;;;;;;5094137;28;20395;-75
2023/12/07 10:04:25;;;;;;;11.87;10.50;;;4.80;99.90;;;;;;5076218;28;20251;-74
2023/12/07 10:06:52;;;;;;;11.00;7.77;;;4.80;99.90;;;;;;5094108;28;20182;-73
2023/12/07 10:09:18;;;;;;;11.93;9.70;;;4.80;99.90;;;;;;5106030;28;21012;-74
2023/12/07 10:11:46;;;;;;;13.30;11.90;;;4.70;99.90;;;;;;5113240;28;20399;-72
2023/12/07 10:14:11;;;;;;;8.60;7.70;;;4.80;99.90;;;;;;5113708;28;20438;-69
2023/12/07 10:16:38;;;;;;;8.60;7.67;;;4.80;99.90;;;;;;5113958;28;20867;-70
2023/12/07 10:19:17;;;;;;;8.87;6.77;;;5.00;99.90;;;;;;5101836;28;20459;-70
2023/12/07 10:21:43;;;;;;;6.33;5.70;;;5.00;99.90;;;;;;5093171;28;20173;-70
2023/12/07 10:24:09;;;;;;;5.80;5.20;;;5.10;99.90;;;;;;5093198;28;20399;-70
2023/12/07 10:26:36;;;;;;;6.30;5.10;;;5.20;99.90;;;;;;5093619;28;20961;-69
2023/12/07 10:29:05;;;;;;;6.33;4.77;;;5.20;99.90;;;;;;5104335;28;20916;-67
2023/12/07 10:31:31;;;;;;;6.50;5.07;;;5.30;99.90;;;;;;5113743;28;20445;-70
2023/12/07 10:33:56;;;;;;;6.30;5.70;;;5.30;99.90;;;;;;5113495;28;20482;-71
2023/12/07 10:36:23;;;;;;;6.47;5.87;;;5.30;99.90;;;;;;5113771;28;20522;-70
2023/12/07 10:38:50;;;;;;;7.77;6.07;;;5.40;99.90;;;;;;5113184;28;20662;-72
2023/12/07 10:41:19;;;;;;;8.23;5.87;;;5.40;99.90;;;;;;5112619;28;20411;-71
2023/12/07 10:43:51;;;;;;;10.27;6.13;;;5.40;99.90;;;;;;5113549;28;20455;-70
2023/12/07 10:46:19;;;;;;;6.97;5.80;;;5.50;99.90;;;;;;5113690;28;20440;-72
2023/12/07 10:48:47;;;;;;;7.07;5.33;;;5.70;99.90;;;;;;5112774;28;20988;-71
2023/12/07 10:51:22;;;;;;;7.07;6.03;;;6.00;99.90;;;;;;5113166;28;20412;-70
2023/12/07 10:53:50;;;;;;;5.30;4.20;;;7.30;99.90;;;;;;5113651;28;20465;-75
2023/12/07 10:56:40;;;;;;;5.53;4.90;;;8.90;99.90;;;;;;5113109;28;20845;-72
2023/12/07 10:59:07;;;;;;;5.93;4.63;;;10.10;98.90;;;;;;5112937;28;20585;-71
2023/12/07 11:01:34;;;;;;;5.30;4.30;;;11.00;95.50;;;;;;5112994;28;20433;-69
2023/12/07 11:04:01;;;;;;;7.40;4.50;;;11.30;93.30;;;;;;5113153;28;20398;-71
2023/12/07 11:06:27;;;;;;;10.40;3.80;;;12.60;93.50;;;;;;5113638;28;20404;-74
2023/12/07 11:08:59;;;;;;;3.37;3.03;;;13.90;86.10;;;;;;5105767;28;20915;-71
2023/12/07 11:11:39;;;;;;;6.73;4.40;;;15.00;80.60;;;;;;5113318;28;20637;-70
2023/12/07 11:14:07;;;;;;;3.60;2.80;;;15.40;77.20;;;;;;5113304;28;20451;-70
2023/12/07 11:16:35;;;;;;;3.20;2.90;;;16.10;71.80;;;;;;5113630;28;20402;-72
2023/12/07 11:19:04;;;;;;;6.53;2.37;;;15.80;69.20;;;;;;5113054;28;20425;-69
2023/12/07 11:21:30;;;;;;;2.57;2.37;;;15.30;65.60;;;;;;5113378;28;20909;-70
2023/12/07 11:23:59;;;;;;;2.80;2.53;;;14.70;64.20;;;;;;5113053;28;20491;-71
2023/12/07 11:26:25;;;;;;;4.50;2.43;;;14.60;64.80;;;;;;5113272;28;20175;-73
2023/12/07 11:28:51;;;;;;;4.63;3.37;;;14.10;65.30;;;;;;5106304;28;20524;-72
2023/12/07 11:31:17;;;;;;;4.40;3.20;;;14.10;66.60;;;;;;5113672;28;20822;-71
2023/12/07 11:33:43;;;;;;;4.00;2.83;;;14.10;66.80;;;;;;5112726;28;20519;-72
2023/12/07 11:36:10;;;;;;;5.70;3.50;;;14.80;68.50;;;;;;5113048;28;20496;-71
2023/12/07 11:39:01;;;;;;;4.63;3.40;;;15.20;64.70;;;;;;5097403;28;20432;-72
2023/12/07 11:41:33;;;;;;;4.83;3.97;;;15.70;65.50;;;;;;5113272;28;20470;-72
2023/12/07 11:43:58;;;;;;;4.53;4.07;;;16.00;63.90;;;;;;5112686;28;20968;-71
2023/12/07 11:46:24;;;;;;;4.40;4.00;;;16.40;65.40;;;;;;5112944;28;20437;-72
2023/12/07 11:48:50;;;;;;;5.30;3.53;;;16.70;61.70;;;;;;5112471;28;20208;-72
2023/12/07 11:51:16;;;;;;;5.10;3.93;;;16.30;63.00;;;;;;5112921;28;20641;-71
2023/12/07 11:53:42;;;;;;;4.07;3.70;;;15.80;62.60;;;;;;5094491;28;20965;-72
2023/12/07 11:56:10;;;;;;;4.60;3.70;;;15.20;65.60;;;;;;5112907;28;20420;-71
2023/12/07 11:58:37;;;;;;;5.30;3.73;;;15.70;64.60;;;;;;5113065;28;20211;-72
2023/12/07 12:01:04;;;;;;;5.93;3.97;;;16.00;63.70;;;;;;5116312;28;20397;-72
2023/12/07 12:03:32;;;;;;;4.33;3.73;;;17.00;62.00;;;;;;5116345;28;20444;-72
2023/12/07 12:05:58;;;;;;;4.37;3.97;;;18.40;60.20;;;;;;5116713;28;20811;-73
2023/12/07 12:08:24;;;;;;;7.70;4.50;;;17.20;57.90;;;;;;5116338;28;20426;-72
2023/12/07 12:10:52;;;;;;;7.93;4.20;;;16.40;61.00;;;;;;5116058;28;20922;-72
2023/12/07 12:13:18;;;;;;;3.80;3.50;;;15.70;62.20;;;;;;5116249;28;20450;-74
2023/12/07 12:15:46;;;;;;;4.97;3.77;;;15.40;63.70;;;;;;5116409;28;20894;-72
2023/12/07 12:18:13;;;;;;;4.70;4.20;;;15.00;62.60;;;;;;5116211;28;20425;-71
2023/12/07 12:20:39;;;;;;;4.73;4.33;;;14.20;65.70;;;;;;5115799;28;20823;-73
2023/12/07 12:23:05;;;;;;;7.60;5.47;;;13.70;68.20;;;;;;5116319;28;20893;-75
2023/12/07 12:25:31;;;;;;;5.63;5.07;;;13.10;67.50;;;;;;5115857;28;20424;-74
2023/12/07 12:28:01;;;;;;;5.30;4.77;;;12.10;68.40;;;;;;5115483;28;20679;-73
2023/12/07 12:30:28;;;;;;;6.40;5.20;;;10.60;72.30;;;;;;5108431;28;20434;-73
2023/12/07 12:32:56;;;;;;;5.63;4.97;;;9.70;77.60;;;;;;5097283;28;20453;-72
2023/12/07 12:35:22;;;;;;;5.80;5.20;;;9.00;80.90;;;;;;5115777;28;20462;-72
2023/12/07 12:37:48;;;;;;;7.57;5.40;;;8.40;84.30;;;;;;5115599;28;20431;-73
2023/12/07 12:40:20;;;;;;;7.00;4.90;;;8.50;87.90;;;;;;5115221;28;20428;-72
2023/12/07 12:42:50;;;;;;;5.40;4.90;;;7.90;89.80;;;;;;5115861;28;20390;-72
2023/12/07 12:45:18;;;;;;;6.50;5.90;;;7.70;90.80;;;;;;5115546;28;20824;-73